Airfield :
LOGIN :

Register | Disclaimer

   EN    FR    IT 

 










Legend :    VFR   Marginal VFR   IFR   Intensive IFR   Very Intensive IFR
Visi :
Ceiling :
>= 8 km
>= 3000ft
5 to 8 km
1000 to 3000 ft
1500m to 5 km
500 to 1000 ft
800 to 1500m
200 to 500 ft
< 800m
< 200 ft
Symbols :   Thunderstorms  Fog  Heavy snow  Heavy precipitations  Wind > 20 kt
SIGMETs :     Misc.  Thunderstorms  Icing  Turbulence  Mountain Waves  Volcanic Ashes






- Airport Elevation : 1300 ft
- IATA code : LIG


LFBL - Limoges

CURRENT METAR :
  • 132200Z AUTO 12008KT CAVOK 17/14 Q1014 NOSIG

EXPIRED METARs :
  • 132130Z AUTO 15008KT 120V180 CAVOK 17/14 Q1014 NOSIG
  • 132100Z AUTO 14008KT CAVOK 17/15 Q1014 NOSIG
  • 132030Z AUTO 12007KT CAVOK 17/16 Q1014 NOSIG
  • 132000Z AUTO 12005KT 9999 FEW034 SCT066 BKN094 17/16 Q1014 NOSIG
  • 131930Z AUTO 12003KT 080V150 9999 -RA SCT035/// BKN042/// BKN058/// ///TCU 17/16 Q1014 BECMG NSC
  • 131900Z AUTO VRB03KT 9999 3100 -RA BKN035/// BKN041/// BKN047/// ///CB 17/16 Q1014 TEMPO 4000 SHRA BECMG NSC

TAF AMD TAF LFBL
Valid from the 13 at 18:00 until the 14 at 18:00 UTC


131805Z 1318/1418 16012KT 9999 BKN030 FEW050CB BKN100
TEMPO 1318/1320 4000 SHRA
PROB30
TEMPO 1318/1319 2000 TSRA
BECMG 1320/1322 CAVOK
BECMG 1405/1407 15016G28KT
PROB40
TEMPO 1416/1418 VRB15G30KT 5000 TSRA BKN030CB
ATIS : +33 5 55 48 40 37



MET'MAP, your aeronautical weather chart ! - Copyright ORBIFLY December 2007 - Disclaimer

ORBIFLY MET'MAP TEAM :

Programming & Development : Alexandra Zaïnal
Concept & Development : Baudouin d'Aumeries
Co-Development & Prog : Marc-Olivier Méhu
Technical & hardware support : Manuel Goepfert

Contact : metmap@orbifly.com




SOURCES & CREDITS :

   NOAA